This is the latest recevied weather packets stored in our database for station/object N4DRV. If no packets are shown the sender has not sent any weather packets the latest 10 day(s).
| Time | Temp. | Humidity | Pressure | Rain* | Wind** | Luminosity | Snow |
|---|---|---|---|---|---|---|---|
| 1777929938 | 25° C | 43% | 1015 hPa | 0 mm | - | - | - |
| 1777929336 | 25° C | 42% | 1014.9 hPa | 0 mm | - | - | - |
| 1777926329 | 24.44° C | 46% | 1015.3 hPa | 0 mm | - | - | - |
| 1777925727 | 24.44° C | 46% | 1015.5 hPa | 0 mm | - | - | - |
| 1777922120 | 23.33° C | 51% | 1016.3 hPa | 0 mm | - | - | - |
| 1777919733 | 22.78° C | 49% | 1016.8 hPa | 0 mm | - | - | - |
| 1777917325 | 22.22° C | 53% | 1017.3 hPa | 0 mm | - | - | - |
| 1777916723 | 22.22° C | 51% | 1017.6 hPa | 0 mm | - | - | - |
| 1777904739 | 17.78° C | 65% | 1019.4 hPa | 0 mm | - | - | - |
| 1777903580 | 16.11° C | 71% | 1019.5 hPa | 0 mm | - | - | - |
| 1777902331 | 13.89° C | 78% | 1019.5 hPa | 0 mm | - | - | - |
| 1777896362 | 6.11° C | 97% | 1019.7 hPa | 0 mm | - | - | - |
| 1777895755 | 5.56° C | 96% | 1019.8 hPa | 0 mm | - | - | - |
| 1777895136 | 5.56° C | 96% | 1019.7 hPa | 0 mm | - | - | - |
| 1777891523 | 5.56° C | 95% | 1019 hPa | 0 mm | - | - | - |
| 1777890926 | 5.56° C | 94% | 1019 hPa | 0 mm | - | - | - |
| 1777890324 | 5.56° C | 94% | 1018.9 hPa | 0 mm | - | - | - |
| 1777887936 | 5.56° C | 94% | 1018.8 hPa | 0 mm | - | - | - |
| 1777884349 | 6.11° C | 94% | 1018.9 hPa | 0 mm | - | - | - |
| 1777882527 | 6.11° C | 93% | 1018.8 hPa | 0 mm | - | - | - |
| 1777881946 | 6.67° C | 93% | 1018.8 hPa | 0 mm | - | - | - |
| 1777878359 | 7.22° C | 92% | 1019.3 hPa | 0 mm | - | - | - |
| 1777876533 | 7.22° C | 92% | 1019.3 hPa | 0 mm | - | - | - |
| 1777871719 | 8.33° C | 89% | 1019.6 hPa | 0 mm | - | - | - |
| 1777864526 | 10.56° C | 82% | 1019.7 hPa | 0 mm | - | - | - |
* Rain latest hour (hover to see other rain measurements)
** Current wind speed in m/s (hover to see current wind gust speed)